sensor_id;sensor_type;location;lat;lon;timestamp;pressure;altitude;pressure_sealevel;temperature;humidity
11710;BME280;5911;51.036;6.972;2023-03-26T00:02:02;100003.31;;;10.50;100.00
11710;BME280;5911;51.036;6.972;2023-03-26T00:04:30;99990.81;;;10.43;100.00
11710;BME280;5911;51.036;6.972;2023-03-26T00:06:59;100003.56;;;10.47;100.00
11710;BME280;5911;51.036;6.972;2023-03-26T00:09:27;99989.00;;;10.53;100.00
11710;BME280;5911;51.036;6.972;2023-03-26T00:11:55;99979.44;;;10.42;100.00
11710;BME280;5911;51.036;6.972;2023-03-26T00:14:23;100003.69;;;10.55;100.00
11710;BME280;5911;51.036;6.972;2023-03-26T00:16:52;99995.66;;;10.57;100.00
11710;BME280;5911;51.036;6.972;2023-03-26T00:19:21;99990.41;;;10.47;100.00
11710;BME280;5911;51.036;6.972;2023-03-26T00:21:49;99999.81;;;10.60;100.00
11710;BME280;5911;51.036;6.972;2023-03-26T00:24:18;99994.94;;;10.55;100.00
11710;BME280;5911;51.036;6.972;2023-03-26T00:26:46;99999.13;;;10.57;100.00
11710;BME280;5911;51.036;6.972;2023-03-26T00:29:19;99986.63;;;10.60;100.00
11710;BME280;5911;51.036;6.972;2023-03-26T00:31:48;99991.66;;;10.53;100.00
11710;BME280;5911;51.036;6.972;2023-03-26T00:34:16;99992.31;;;10.55;100.00
11710;BME280;5911;51.036;6.972;2023-03-26T00:36:46;99991.63;;;10.63;100.00
11710;BME280;5911;51.036;6.972;2023-03-26T00:39:19;99995.50;;;10.58;100.00
11710;BME280;5911;51.036;6.972;2023-03-26T00:41:49;99988.16;;;10.62;100.00
11710;BME280;5911;51.036;6.972;2023-03-26T00:44:20;99953.06;;;10.42;100.00
11710;BME280;5911;51.036;6.972;2023-03-26T00:46:48;99987.31;;;10.62;100.00
11710;BME280;5911;51.036;6.972;2023-03-26T00:49:15;99975.81;;;10.63;100.00
11710;BME280;5911;51.036;6.972;2023-03-26T00:51:45;99972.47;;;10.61;100.00
11710;BME280;5911;51.036;6.972;2023-03-26T00:54:13;99976.78;;;10.62;100.00
11710;BME280;5911;51.036;6.972;2023-03-26T00:56:41;99984.69;;;10.62;100.00
11710;BME280;5911;51.036;6.972;2023-03-26T00:59:09;99979.13;;;10.65;100.00
11710;BME280;5911;51.036;6.972;2023-03-26T01:01:37;99934.06;;;10.48;100.00
11710;BME280;5911;51.036;6.972;2023-03-26T01:04:24;99973.59;;;10.68;100.00
11710;BME280;5911;51.036;6.972;2023-03-26T01:07:00;99968.84;;;10.71;100.00
11710;BME280;5911;51.036;6.972;2023-03-26T01:09:36;99963.56;;;10.71;100.00
11710;BME280;5911;51.036;6.972;2023-03-26T01:12:12;99950.50;;;10.70;100.00
11710;BME280;5911;51.036;6.972;2023-03-26T01:14:43;99936.38;;;10.61;100.00
11710;BME280;5911;51.036;6.972;2023-03-26T01:17:12;99906.16;;;10.46;100.00
11710;BME280;5911;51.036;6.972;2023-03-26T01:19:44;99932.03;;;10.70;100.00
11710;BME280;5911;51.036;6.972;2023-03-26T01:22:17;99925.00;;;10.61;100.00
11710;BME280;5911;51.036;6.972;2023-03-26T01:24:48;99928.88;;;10.66;100.00
11710;BME280;5911;51.036;6.972;2023-03-26T01:27:27;99921.25;;;10.63;100.00
11710;BME280;5911;51.036;6.972;2023-03-26T01:30:02;99918.34;;;10.56;100.00
11710;BME280;5911;51.036;6.972;2023-03-26T01:32:41;99920.69;;;10.60;100.00
11710;BME280;5911;51.036;6.972;2023-03-26T01:35:21;99918.34;;;10.56;100.00
11710;BME280;5911;51.036;6.972;2023-03-26T01:38:00;99912.22;;;10.56;100.00
11710;BME280;5911;51.036;6.972;2023-03-26T01:40:40;99908.09;;;10.53;100.00
11710;BME280;5911;51.036;6.972;2023-03-26T01:43:20;99899.09;;;10.46;100.00
11710;BME280;5911;51.036;6.972;2023-03-26T01:45:52;99900.91;;;10.36;100.00
11710;BME280;5911;51.036;6.972;2023-03-26T01:48:27;99892.72;;;10.30;100.00
11710;BME280;5911;51.036;6.972;2023-03-26T01:50:56;99891.78;;;10.21;100.00
11710;BME280;5911;51.036;6.972;2023-03-26T01:53:24;99888.97;;;10.13;100.00
11710;BME280;5911;51.036;6.972;2023-03-26T01:56:00;99882.88;;;10.03;100.00
11710;BME280;5911;51.036;6.972;2023-03-26T01:58:36;99880.94;;;10.05;100.00
11710;BME280;5911;51.036;6.972;2023-03-26T02:01:17;99875.25;;;10.00;100.00
11710;BME280;5911;51.036;6.972;2023-03-26T02:03:54;99876.22;;;9.99;100.00
11710;BME280;5911;51.036;6.972;2023-03-26T02:06:27;99867.06;;;10.03;100.00
11710;BME280;5911;51.036;6.972;2023-03-26T02:09:02;99867.34;;;10.00;100.00
11710;BME280;5911;51.036;6.972;2023-03-26T02:11:32;99868.47;;;9.97;100.00
11710;BME280;5911;51.036;6.972;2023-03-26T02:14:03;99861.66;;;9.95;100.00
11710;BME280;5911;51.036;6.972;2023-03-26T02:16:31;99864.03;;;9.98;100.00
11710;BME280;5911;51.036;6.972;2023-03-26T02:18:59;99858.34;;;10.02;100.00
11710;BME280;5911;51.036;6.972;2023-03-26T02:21:28;99832.00;;;9.93;100.00
11710;BME280;5911;51.036;6.972;2023-03-26T02:23:59;99849.31;;;10.05;100.00
11710;BME280;5911;51.036;6.972;2023-03-26T02:26:36;99843.78;;;10.08;100.00
11710;BME280;5911;51.036;6.972;2023-03-26T02:29:09;99838.22;;;10.11;100.00
11710;BME280;5911;51.036;6.972;2023-03-26T02:31:40;99824.34;;;10.09;100.00
11710;BME280;5911;51.036;6.972;2023-03-26T02:34:09;99827.66;;;10.11;100.00
11710;BME280;5911;51.036;6.972;2023-03-26T02:36:39;99822.28;;;10.03;100.00
11710;BME280;5911;51.036;6.972;2023-03-26T02:39:09;99817.72;;;10.05;100.00
11710;BME280;5911;51.036;6.972;2023-03-26T02:41:39;99817.72;;;10.05;100.00
11710;BME280;5911;51.036;6.972;2023-03-26T02:44:09;99814.66;;;10.00;100.00
11710;BME280;5911;51.036;6.972;2023-03-26T02:46:55;99811.34;;;9.98;100.00
11710;BME280;5911;51.036;6.972;2023-03-26T02:49:42;99800.50;;;10.01;100.00
11710;BME280;5911;51.036;6.972;2023-03-26T02:52:14;99792.47;;;10.02;100.00
11710;BME280;5911;51.036;6.972;2023-03-26T02:54:46;99796.34;;;10.08;100.00
11710;BME280;5911;51.036;6.972;2023-03-26T02:57:18;99792.72;;;10.09;100.00
11710;BME280;5911;51.036;6.972;2023-03-26T03:00:06;99790.78;;;10.11;100.00
11710;BME280;5911;51.036;6.972;2023-03-26T03:02:36;99769.00;;;10.09;100.00
11710;BME280;5911;51.036;6.972;2023-03-26T03:05:24;99772.47;;;10.09;100.00
11710;BME280;5911;51.036;6.972;2023-03-26T03:08:10;99775.66;;;10.13;100.00
11710;BME280;5911;51.036;6.972;2023-03-26T03:10:57;99778.28;;;10.13;100.00
11710;BME280;5911;51.036;6.972;2023-03-26T03:13:40;99775.53;;;10.14;100.00
11710;BME280;5911;51.036;6.972;2023-03-26T03:16:08;99770.38;;;10.13;100.00
11710;BME280;5911;51.036;6.972;2023-03-26T03:18:36;99775.53;;;10.14;100.00
11710;BME280;5911;51.036;6.972;2023-03-26T03:21:05;99763.88;;;10.17;100.00
11710;BME280;5911;51.036;6.972;2023-03-26T03:23:33;99762.88;;;10.18;100.00
11710;BME280;5911;51.036;6.972;2023-03-26T03:26:21;99751.13;;;10.22;100.00
11710;BME280;5911;51.036;6.972;2023-03-26T03:28:53;99746.69;;;10.23;100.00
11710;BME280;5911;51.036;6.972;2023-03-26T03:31:21;99746.38;;;10.26;100.00
11710;BME280;5911;51.036;6.972;2023-03-26T03:33:51;99735.56;;;10.29;100.00
11710;BME280;5911;51.036;6.972;2023-03-26T03:36:21;99739.16;;;10.28;100.00
11710;BME280;5911;51.036;6.972;2023-03-26T03:38:58;99740.00;;;10.28;100.00
11710;BME280;5911;51.036;6.972;2023-03-26T03:41:29;99740.25;;;10.35;100.00
11710;BME280;5911;51.036;6.972;2023-03-26T03:44:01;99734.28;;;10.33;100.00
11710;BME280;5911;51.036;6.972;2023-03-26T03:46:31;99737.22;;;10.30;100.00
11710;BME280;5911;51.036;6.972;2023-03-26T03:48:59;99736.25;;;10.31;100.00
11710;BME280;5911;51.036;6.972;2023-03-26T03:51:31;99722.09;;;10.32;100.00
11710;BME280;5911;51.036;6.972;2023-03-26T03:54:11;99720.97;;;10.34;100.00
11710;BME280;5911;51.036;6.972;2023-03-26T03:56:45;99723.88;;;10.31;100.00
11710;BME280;5911;51.036;6.972;2023-03-26T03:59:37;99721.66;;;10.36;100.00
11710;BME280;5911;51.036;6.972;2023-03-26T04:02:15;99710.84;;;10.30;100.00
11710;BME280;5911;51.036;6.972;2023-03-26T04:04:57;99715.56;;;10.36;100.00
11710;BME280;5911;51.036;6.972;2023-03-26T04:07:27;99708.47;;;10.36;100.00
11710;BME280;5911;51.036;6.972;2023-03-26T04:10:07;99693.34;;;10.38;100.00
11710;BME280;5911;51.036;6.972;2023-03-26T04:13:07;99697.47;;;10.41;100.00
11710;BME280;5911;51.036;6.972;2023-03-26T04:16:00;99694.53;;;10.44;100.00
11710;BME280;5911;51.036;6.972;2023-03-26T04:18:28;99684.16;;;10.42;100.00
11710;BME280;5911;51.036;6.972;2023-03-26T04:21:04;99683.09;;;10.35;100.00
11710;BME280;5911;51.036;6.972;2023-03-26T04:23:33;99672.41;;;10.37;100.00
11710;BME280;5911;51.036;6.972;2023-03-26T04:26:12;99667.63;;;10.40;100.00
11710;BME280;5911;51.036;6.972;2023-03-26T04:29:05;99664.50;;;10.37;100.00
11710;BME280;5911;51.036;6.972;2023-03-26T04:31:38;99651.16;;;10.38;100.00
11710;BME280;5911;51.036;6.972;2023-03-26T04:34:19;99650.47;;;10.36;100.00
11710;BME280;5911;51.036;6.972;2023-03-26T04:37:23;99645.22;;;10.36;100.00
11710;BME280;5911;51.036;6.972;2023-03-26T04:40:04;99642.88;;;10.33;100.00
11710;BME280;5911;51.036;6.972;2023-03-26T04:42:38;99631.63;;;10.31;100.00
11710;BME280;5911;51.036;6.972;2023-03-26T04:45:25;99632.75;;;10.29;100.00
11710;BME280;5911;51.036;6.972;2023-03-26T04:47:56;99634.03;;;10.25;100.00
11710;BME280;5911;51.036;6.972;2023-03-26T04:50:25;99635.16;;;10.22;100.00
11710;BME280;5911;51.036;6.972;2023-03-26T04:52:55;99633.19;;;10.24;100.00
11710;BME280;5911;51.036;6.972;2023-03-26T04:55:33;99627.63;;;10.27;100.00
11710;BME280;5911;51.036;6.972;2023-03-26T04:58:12;99621.53;;;10.27;100.00
11710;BME280;5911;51.036;6.972;2023-03-26T05:00:51;99610.16;;;10.26;100.00
11710;BME280;5911;51.036;6.972;2023-03-26T05:03:21;99606.69;;;10.26;100.00
11710;BME280;5911;51.036;6.972;2023-03-26T05:05:48;99611.53;;;10.30;100.00
11710;BME280;5911;51.036;6.972;2023-03-26T05:08:17;99610.97;;;10.27;100.00
11710;BME280;5911;51.036;6.972;2023-03-26T05:10:45;99609.19;;;10.27;100.00
11710;BME280;5911;51.036;6.972;2023-03-26T05:13:20;99609.56;;;10.32;100.00
11710;BME280;5911;51.036;6.972;2023-03-26T05:15:52;99607.09;;;10.31;100.00
11710;BME280;5911;51.036;6.972;2023-03-26T05:18:38;99600.28;;;10.28;100.00
11710;BME280;5911;51.036;6.972;2023-03-26T05:21:07;99597.81;;;10.27;100.00
11710;BME280;5911;51.036;6.972;2023-03-26T05:23:37;99594.59;;;10.33;100.00
11710;BME280;5911;51.036;6.972;2023-03-26T05:26:19;99598.34;;;10.30;100.00
11710;BME280;5911;51.036;6.972;2023-03-26T05:28:47;99596.41;;;10.32;100.00
11710;BME280;5911;51.036;6.972;2023-03-26T05:31:42;99575.53;;;10.21;100.00
11710;BME280;5911;51.036;6.972;2023-03-26T05:34:12;99579.06;;;10.30;100.00
11710;BME280;5911;51.036;6.972;2023-03-26T05:36:40;99571.00;;;10.31;100.00
11710;BME280;5911;51.036;6.972;2023-03-26T05:39:32;99562.41;;;10.29;100.00
11710;BME280;5911;51.036;6.972;2023-03-26T05:42:30;99558.41;;;10.25;100.00
11710;BME280;5911;51.036;6.972;2023-03-26T05:45:30;99562.56;;;10.28;100.00
11710;BME280;5911;51.036;6.972;2023-03-26T05:48:05;99560.75;;;10.28;100.00
11710;BME280;5911;51.036;6.972;2023-03-26T05:50:34;99550.91;;;10.30;100.00
11710;BME280;5911;51.036;6.972;2023-03-26T05:53:03;99549.53;;;10.26;100.00
11710;BME280;5911;51.036;6.972;2023-03-26T05:55:36;99548.56;;;10.27;100.00
11710;BME280;5911;51.036;6.972;2023-03-26T05:58:24;99540.50;;;10.29;100.00
11710;BME280;5911;51.036;6.972;2023-03-26T06:01:12;99539.00;;;10.26;100.00
11710;BME280;5911;51.036;6.972;2023-03-26T06:04:01;99537.03;;;10.28;100.00
11710;BME280;5911;51.036;6.972;2023-03-26T06:06:36;99536.06;;;10.29;100.00
11710;BME280;5911;51.036;6.972;2023-03-26T06:09:04;99535.53;;;10.26;100.00
11710;BME280;5911;51.036;6.972;2023-03-26T06:11:32;99530.09;;;10.27;100.00
11710;BME280;5911;51.036;6.972;2023-03-26T06:14:02;99533.03;;;10.24;100.00
11710;BME280;5911;51.036;6.972;2023-03-26T06:16:31;99527.75;;;10.24;100.00
11710;BME280;5911;51.036;6.972;2023-03-26T06:19:11;99528.09;;;10.21;100.00
11710;BME280;5911;51.036;6.972;2023-03-26T06:21:54;99525.81;;;10.26;100.00
11710;BME280;5911;51.036;6.972;2023-03-26T06:24:27;99514.91;;;10.21;100.00
11710;BME280;5911;51.036;6.972;2023-03-26T06:27:13;99510.84;;;10.27;100.00
11710;BME280;5911;51.036;6.972;2023-03-26T06:30:20;99497.50;;;10.28;100.00
11710;BME280;5911;51.036;6.972;2023-03-26T06:32:58;99490.88;;;10.24;100.00
11710;BME280;5911;51.036;6.972;2023-03-26T06:35:31;99485.38;;;10.17;100.00
11710;BME280;5911;51.036;6.972;2023-03-26T06:38:01;99495.50;;;10.22;100.00
11710;BME280;5911;51.036;6.972;2023-03-26T06:40:29;99485.94;;;10.21;100.00
11710;BME280;5911;51.036;6.972;2023-03-26T06:43:17;99482.31;;;10.22;100.00
11710;BME280;5911;51.036;6.972;2023-03-26T06:46:07;99489.25;;;10.23;100.00
11710;BME280;5911;51.036;6.972;2023-03-26T06:48:57;99475.94;;;10.15;100.00
11710;BME280;5911;51.036;6.972;2023-03-26T06:51:59;99486.19;;;10.18;100.00
11710;BME280;5911;51.036;6.972;2023-03-26T06:54:59;99482.19;;;10.14;100.00
11710;BME280;5911;51.036;6.972;2023-03-26T06:57:47;99464.94;;;10.02;100.00
11710;BME280;5911;51.036;6.972;2023-03-26T07:00:41;99455.53;;;9.99;100.00
11710;BME280;5911;51.036;6.972;2023-03-26T07:03:27;99462.72;;;10.07;100.00
11710;BME280;5911;51.036;6.972;2023-03-26T07:06:14;99476.63;;;10.17;100.00
11710;BME280;5911;51.036;6.972;2023-03-26T07:08:48;99470.69;;;10.15;100.00
11710;BME280;5911;51.036;6.972;2023-03-26T07:11:35;99465.09;;;10.18;100.00
11710;BME280;5911;51.036;6.972;2023-03-26T07:14:22;99459.84;;;10.18;100.00
11710;BME280;5911;51.036;6.972;2023-03-26T07:17:06;99459.31;;;10.14;100.00
11710;BME280;5911;51.036;6.972;2023-03-26T07:20:01;99442.66;;;10.14;100.00
11710;BME280;5911;51.036;6.972;2023-03-26T07:22:30;99449.03;;;10.21;100.00
11710;BME280;5911;51.036;6.972;2023-03-26T07:25:17;99416.94;;;10.08;100.00
11710;BME280;5911;51.036;6.972;2023-03-26T07:28:15;99438.75;;;10.18;100.00
11710;BME280;5911;51.036;6.972;2023-03-26T07:31:15;99436.53;;;10.23;100.00
11710;BME280;5911;51.036;6.972;2023-03-26T07:34:10;99444.59;;;10.21;100.00
11710;BME280;5911;51.036;6.972;2023-03-26T07:36:56;99440.31;;;10.20;100.00
11710;BME280;5911;51.036;6.972;2023-03-26T07:39:48;99432.81;;;10.16;100.00
11710;BME280;5911;51.036;6.972;2023-03-26T07:42:41;99431.84;;;10.17;100.00
11710;BME280;5911;51.036;6.972;2023-03-26T07:45:36;99402.31;;;9.96;100.00
11710;BME280;5911;51.036;6.972;2023-03-26T07:48:30;99427.28;;;10.19;100.00
11710;BME280;5911;51.036;6.972;2023-03-26T07:51:21;99419.25;;;10.11;100.00
11710;BME280;5911;51.036;6.972;2023-03-26T07:53:53;99416.94;;;10.08;100.00
11710;BME280;5911;51.036;6.972;2023-03-26T07:56:53;99419.94;;;10.13;100.00
11710;BME280;5911;51.036;6.972;2023-03-26T07:59:50;99417.00;;;10.16;100.00
11710;BME280;5911;51.036;6.972;2023-03-26T08:02:53;99415.63;;;10.12;100.00
11710;BME280;5911;51.036;6.972;2023-03-26T08:05:50;99408.72;;;10.11;100.00
11710;BME280;5911;51.036;6.972;2023-03-26T08:08:32;99407.88;;;10.10;100.00
11710;BME280;5911;51.036;6.972;2023-03-26T08:11:33;99407.72;;;10.12;100.00
11710;BME280;5911;51.036;6.972;2023-03-26T08:14:18;99401.34;;;10.14;100.00
11710;BME280;5911;51.036;6.972;2023-03-26T08:16:53;99406.03;;;10.20;100.00
11710;BME280;5911;51.036;6.972;2023-03-26T08:19:35;99405.47;;;10.17;100.00
11710;BME280;5911;51.036;6.972;2023-03-26T08:22:11;99393.28;;;10.16;100.00
11710;BME280;5911;51.036;6.972;2023-03-26T08:24:50;99401.59;;;10.21;100.00
11710;BME280;5911;51.036;6.972;2023-03-26T08:27:29;99400.44;;;10.23;100.00
11710;BME280;5911;51.036;6.972;2023-03-26T08:30:06;99401.94;;;10.26;100.00
11710;BME280;5911;51.036;6.972;2023-03-26T08:32:36;99402.09;;;10.25;100.00
11710;BME280;5911;51.036;6.972;2023-03-26T08:35:10;99396.59;;;10.18;100.00
11710;BME280;5911;51.036;6.972;2023-03-26T08:37:39;99401.44;;;10.23;100.00
11710;BME280;5911;51.036;6.972;2023-03-26T08:40:08;99398.63;;;10.24;100.00
11710;BME280;5911;51.036;6.972;2023-03-26T08:43:05;99403.91;;;10.24;100.00
11710;BME280;5911;51.036;6.972;2023-03-26T08:52:13;99392.91;;;10.29;100.00
11710;BME280;5911;51.036;6.972;2023-03-26T08:55:18;99385.00;;;10.11;100.00
11710;BME280;5911;51.036;6.972;2023-03-26T08:58:24;99385.09;;;10.19;100.00
11710;BME280;5911;51.036;6.972;2023-03-26T09:01:08;99387.03;;;10.17;100.00
11710;BME280;5911;51.036;6.972;2023-03-26T09:04:13;99349.59;;;9.87;100.00
11710;BME280;5911;51.036;6.972;2023-03-26T09:07:17;99352.81;;;9.99;100.00
11710;BME280;5911;51.036;6.972;2023-03-26T09:10:06;99380.78;;;10.18;100.00
11710;BME280;5911;51.036;6.972;2023-03-26T09:13:04;99380.53;;;10.21;100.00
11710;BME280;5911;51.036;6.972;2023-03-26T09:16:05;99368.66;;;10.25;100.00
11710;BME280;5911;51.036;6.972;2023-03-26T09:19:19;99374.91;;;10.24;100.00
11710;BME280;5911;51.036;6.972;2023-03-26T09:22:26;99375.09;;;10.23;100.00
11710;BME280;5911;51.036;6.972;2023-03-26T09:25:25;99369.00;;;10.22;100.00
11710;BME280;5911;51.036;6.972;2023-03-26T09:28:26;99356.41;;;10.16;100.00
11710;BME280;5911;51.036;6.972;2023-03-26T09:31:26;99359.44;;;10.21;100.00
11710;BME280;5911;51.036;6.972;2023-03-26T09:34:13;99354.66;;;10.25;100.00
11710;BME280;5911;51.036;6.972;2023-03-26T09:36:53;99349.88;;;10.20;100.00
11710;BME280;5911;51.036;6.972;2023-03-26T09:39:35;99340.84;;;10.23;100.00
11710;BME280;5911;51.036;6.972;2023-03-26T09:42:08;99342.31;;;10.25;100.00
11710;BME280;5911;51.036;6.972;2023-03-26T09:45:03;99335.22;;;10.26;100.00
11710;BME280;5911;51.036;6.972;2023-03-26T09:48:07;99327.56;;;10.14;100.00
11710;BME280;5911;51.036;6.972;2023-03-26T09:50:51;99325.75;;;10.15;100.00
11710;BME280;5911;51.036;6.972;2023-03-26T09:53:42;99299.56;;;10.13;100.00
11710;BME280;5911;51.036;6.972;2023-03-26T09:56:24;99314.69;;;10.29;100.00
11710;BME280;5911;51.036;6.972;2023-03-26T09:59:19;99312.72;;;10.31;100.00
11710;BME280;5911;51.036;6.972;2023-03-26T10:01:56;99305.78;;;10.30;100.00
11710;BME280;5911;51.036;6.972;2023-03-26T10:04:42;99306.16;;;10.35;100.00
11710;BME280;5911;51.036;6.972;2023-03-26T10:07:25;99306.00;;;10.37;100.00
11710;BME280;5911;51.036;6.972;2023-03-26T10:10:02;99306.50;;;10.40;100.00
11710;BME280;5911;51.036;6.972;2023-03-26T10:12:36;99302.56;;;10.44;100.00
11710;BME280;5911;51.036;6.972;2023-03-26T10:15:20;99299.94;;;10.44;100.00
11710;BME280;5911;51.036;6.972;2023-03-26T10:18:06;99293.16;;;10.42;100.00
11710;BME280;5911;51.036;6.972;2023-03-26T10:21:00;99285.94;;;10.44;100.00
11710;BME280;5911;51.036;6.972;2023-03-26T10:23:39;99285.97;;;10.52;100.00
11710;BME280;5911;51.036;6.972;2023-03-26T10:26:23;99293.06;;;10.51;100.00
11710;BME280;5911;51.036;6.972;2023-03-26T10:31:51;99284.50;;;10.57;100.00
11710;BME280;5911;51.036;6.972;2023-03-26T10:34:42;99275.47;;;10.60;100.00
11710;BME280;5911;51.036;6.972;2023-03-26T10:37:15;99281.03;;;10.57;100.00
11710;BME280;5911;51.036;6.972;2023-03-26T10:42:49;99266.19;;;10.48;100.00
11710;BME280;5911;51.036;6.972;2023-03-26T10:45:31;99268.00;;;10.55;100.00
11710;BME280;5911;51.036;6.972;2023-03-26T10:48:22;99257.13;;;10.50;100.00
11710;BME280;5911;51.036;6.972;2023-03-26T10:51:05;99260.16;;;10.64;100.00
11710;BME280;5911;51.036;6.972;2023-03-26T10:53:43;99260.16;;;10.64;100.00
11710;BME280;5911;51.036;6.972;2023-03-26T10:56:19;99251.88;;;10.58;100.00
11710;BME280;5911;51.036;6.972;2023-03-26T10:58:49;99251.25;;;10.65;100.00
11710;BME280;5911;51.036;6.972;2023-03-26T11:01:23;99248.94;;;10.62;100.00
11710;BME280;5911;51.036;6.972;2023-03-26T11:03:57;99250.44;;;10.64;100.00
11710;BME280;5911;51.036;6.972;2023-03-26T11:06:36;99246.97;;;10.72;100.00
11710;BME280;5911;51.036;6.972;2023-03-26T11:09:21;99245.38;;;10.79;100.00
11710;BME280;5911;51.036;6.972;2023-03-26T11:11:55;99237.63;;;10.85;100.00
11710;BME280;5911;51.036;6.972;2023-03-26T11:14:52;99238.66;;;10.92;100.00
11710;BME280;5911;51.036;6.972;2023-03-26T11:17:31;99209.63;;;10.84;100.00
11710;BME280;5911;51.036;6.972;2023-03-26T11:20:12;99235.19;;;11.00;100.00
11710;BME280;5911;51.036;6.972;2023-03-26T11:22:52;99234.72;;;11.05;100.00
11710;BME280;5911;51.036;6.972;2023-03-26T11:25:29;99227.81;;;11.12;100.00
11710;BME280;5911;51.036;6.972;2023-03-26T11:28:07;99224.50;;;11.18;100.00
11710;BME280;5911;51.036;6.972;2023-03-26T11:30:45;99225.16;;;11.20;100.00
11710;BME280;5911;51.036;6.972;2023-03-26T11:33:20;99226.31;;;11.17;100.00
11710;BME280;5911;51.036;6.972;2023-03-26T11:35:54;99201.22;;;11.05;100.00
11710;BME280;5911;51.036;6.972;2023-03-26T11:38:29;99216.41;;;11.19;100.00
11710;BME280;5911;51.036;6.972;2023-03-26T11:41:10;99218.22;;;11.19;100.00
11710;BME280;5911;51.036;6.972;2023-03-26T11:44:02;99222.22;;;11.15;100.00
11710;BME280;5911;51.036;6.972;2023-03-26T11:46:37;99215.75;;;11.09;100.00
11710;BME280;5911;51.036;6.972;2023-03-26T11:49:08;99212.94;;;11.03;100.00
11710;BME280;5911;51.036;6.972;2023-03-26T11:51:39;99222.66;;;11.02;100.00
11710;BME280;5911;51.036;6.972;2023-03-26T11:54:10;99218.88;;;11.05;100.00
11710;BME280;5911;51.036;6.972;2023-03-26T11:56:42;99218.72;;;11.06;100.00
11710;BME280;5911;51.036;6.972;2023-03-26T11:59:36;99210.97;;;11.13;100.00
11710;BME280;5911;51.036;6.972;2023-03-26T12:02:25;99197.63;;;11.14;100.00
11710;BME280;5911;51.036;6.972;2023-03-26T12:05:10;99199.09;;;11.33;100.00
11710;BME280;5911;51.036;6.972;2023-03-26T12:07:45;99204.38;;;11.57;100.00
11710;BME280;5911;51.036;6.972;2023-03-26T12:10:23;99205.69;;;11.70;100.00
11710;BME280;5911;51.036;6.972;2023-03-26T12:12:55;99208.84;;;11.73;100.00
11710;BME280;5911;51.036;6.972;2023-03-26T12:15:25;99202.56;;;11.74;100.00
11710;BME280;5911;51.036;6.972;2023-03-26T12:17:55;99197.28;;;11.74;100.00
11710;BME280;5911;51.036;6.972;2023-03-26T12:20:33;99203.22;;;11.84;100.00
11710;BME280;5911;51.036;6.972;2023-03-26T12:23:04;99192.94;;;11.97;100.00
11710;BME280;5911;51.036;6.972;2023-03-26T12:25:34;99203.66;;;12.12;100.00
11710;BME280;5911;51.036;6.972;2023-03-26T12:28:09;99201.78;;;12.29;100.00
11710;BME280;5911;51.036;6.972;2023-03-26T12:30:50;99204.03;;;12.40;100.00
11710;BME280;5911;51.036;6.972;2023-03-26T12:33:24;99212.22;;;12.61;100.00
11710;BME280;5911;51.036;6.972;2023-03-26T12:35:55;99211.53;;;12.67;100.00
11710;BME280;5911;51.036;6.972;2023-03-26T12:38:31;99203.22;;;12.71;100.00
11710;BME280;5911;51.036;6.972;2023-03-26T12:41:06;99205.94;;;12.62;100.00
11710;BME280;5911;51.036;6.972;2023-03-26T12:43:54;99206.44;;;12.58;100.00
11710;BME280;5911;51.036;6.972;2023-03-26T12:46:44;99204.03;;;12.48;100.00
11710;BME280;5911;51.036;6.972;2023-03-26T12:49:32;99207.50;;;12.41;100.00
11710;BME280;5911;51.036;6.972;2023-03-26T12:52:08;99211.19;;;12.31;100.00
11710;BME280;5911;51.036;6.972;2023-03-26T12:54:52;99202.94;;;12.26;100.00
11710;BME280;5911;51.036;6.972;2023-03-26T12:57:24;99214.34;;;12.27;100.00
11710;BME280;5911;51.036;6.972;2023-03-26T13:00:03;99215.50;;;12.24;100.00
11710;BME280;5911;51.036;6.972;2023-03-26T13:03:02;99216.38;;;12.17;100.00
11710;BME280;5911;51.036;6.972;2023-03-26T13:05:40;99212.41;;;12.13;100.00
11710;BME280;5911;51.036;6.972;2023-03-26T13:08:28;99218.03;;;12.10;100.00
11710;BME280;5911;51.036;6.972;2023-03-26T13:11:04;99219.34;;;12.14;100.00
11710;BME280;5911;51.036;6.972;2023-03-26T13:13:55;99219.97;;;12.24;100.00
11710;BME280;5911;51.036;6.972;2023-03-26T13:16:34;99225.50;;;12.45;100.00
11710;BME280;5911;51.036;6.972;2023-03-26T13:19:06;99228.22;;;12.68;100.00
11710;BME280;5911;51.036;6.972;2023-03-26T13:21:44;99229.31;;;12.82;100.00
11710;BME280;5911;51.036;6.972;2023-03-26T13:24:29;99225.56;;;12.99;100.00
11710;BME280;5911;51.036;6.972;2023-03-26T13:27:15;99232.50;;;13.31;100.00
11710;BME280;5911;51.036;6.972;2023-03-26T13:29:55;99231.97;;;13.35;100.00
11710;BME280;5911;51.036;6.972;2023-03-26T13:32:34;99238.75;;;13.07;100.00
11710;BME280;5911;51.036;6.972;2023-03-26T13:35:22;99237.41;;;13.11;100.00
11710;BME280;5911;51.036;6.972;2023-03-26T13:37:59;99235.94;;;13.09;100.00
11710;BME280;5911;51.036;6.972;2023-03-26T13:40:37;99237.03;;;12.91;100.00
11710;BME280;5911;51.036;6.972;2023-03-26T13:43:21;99243.88;;;12.78;100.00
11710;BME280;5911;51.036;6.972;2023-03-26T13:45:56;99242.91;;;12.79;100.00
11710;BME280;5911;51.036;6.972;2023-03-26T13:48:29;99240.72;;;13.13;100.00
11710;BME280;5911;51.036;6.972;2023-03-26T13:51:03;99241.00;;;13.26;100.00
11710;BME280;5911;51.036;6.972;2023-03-26T13:53:40;99247.94;;;13.27;100.00
11710;BME280;5911;51.036;6.972;2023-03-26T13:56:13;99234.78;;;13.11;100.00
11710;BME280;5911;51.036;6.972;2023-03-26T13:58:46;99251.78;;;13.17;100.00
11710;BME280;5911;51.036;6.972;2023-03-26T14:01:18;99253.13;;;13.13;100.00
11710;BME280;5911;51.036;6.972;2023-03-26T14:03:54;99254.59;;;13.15;100.00
11710;BME280;5911;51.036;6.972;2023-03-26T14:06:34;99261.75;;;13.07;100.00
11710;BME280;5911;51.036;6.972;2023-03-26T14:09:12;99262.41;;;13.09;100.00
11710;BME280;5911;51.036;6.972;2023-03-26T14:11:50;99267.16;;;13.21;100.00
11710;BME280;5911;51.036;6.972;2023-03-26T14:14:29;99271.84;;;13.11;100.00
11710;BME280;5911;51.036;6.972;2023-03-26T14:17:03;99274.81;;;13.08;100.00